createdAt,value
2023-12-11T00:00:39.629Z,98058.31
2023-12-11T00:03:09.374Z,98054.89
2023-12-11T00:05:39.998Z,98056.95
2023-12-11T00:08:09.871Z,98051.48
2023-12-11T00:10:37.377Z,98049.05
2023-12-11T00:13:07.668Z,98047.25
2023-12-11T00:15:35.567Z,98039.80
2023-12-11T00:18:03.486Z,98045.83
2023-12-11T00:20:31.178Z,98044.80
2023-12-11T00:22:58.964Z,98041.95
2023-12-11T00:25:28.375Z,98039.16
2023-12-11T00:27:56.128Z,98038.61
2023-12-11T00:30:24.077Z,98043.13
2023-12-11T00:32:53.116Z,98047.29
2023-12-11T00:35:20.615Z,98042.10
2023-12-11T00:37:48.285Z,98038.10
2023-12-11T00:40:16.007Z,98034.88
2023-12-11T00:44:19.977Z,98039.23
2023-12-11T00:46:47.586Z,98040.17
2023-12-11T00:49:15.132Z,98047.65
2023-12-11T00:51:44.202Z,98056.47
2023-12-11T00:54:12.155Z,98057.73
2023-12-11T00:56:39.940Z,98049.59
2023-12-11T00:59:07.618Z,98045.89
2023-12-11T01:01:35.173Z,98034.13
2023-12-11T01:04:04.835Z,98035.28
2023-12-11T01:06:32.500Z,98034.11
2023-12-11T01:09:00.094Z,98036.13
2023-12-11T01:11:27.683Z,98030.35
2023-12-11T01:13:55.216Z,98032.46
2023-12-11T01:16:23.893Z,98030.55
2023-12-11T01:18:52.196Z,98022.79
2023-12-11T01:21:19.825Z,98019.64
2023-12-11T01:23:49.443Z,98022.58
2023-12-11T01:26:16.967Z,98024.60
2023-12-11T01:28:44.632Z,98025.09
2023-12-11T01:31:12.285Z,98019.08
2023-12-11T01:33:39.941Z,98016.50
2023-12-11T01:36:07.803Z,98011.17
2023-12-11T01:38:35.319Z,98006.50
2023-12-11T01:41:03.624Z,97999.98
2023-12-11T01:43:31.191Z,97997.02
2023-12-11T01:46:06.633Z,97986.07
2023-12-11T01:48:35.441Z,97986.73
2023-12-11T01:51:04.126Z,97979.60
2023-12-11T01:53:31.730Z,97977.88
2023-12-11T01:56:01.085Z,97979.17
2023-12-11T01:58:30.939Z,97978.90
2023-12-11T02:00:58.993Z,97979.27
2023-12-11T02:03:26.708Z,97975.16
2023-12-11T02:05:54.333Z,97973.83
2023-12-11T02:08:21.877Z,97974.34
2023-12-11T02:10:49.958Z,97974.70
2023-12-11T02:13:17.652Z,97977.21
2023-12-11T02:15:46.151Z,97974.66
2023-12-11T02:18:15.824Z,97967.36
2023-12-11T02:20:44.235Z,97969.42
2023-12-11T02:23:19.464Z,97967.27
2023-12-11T02:25:47.641Z,97971.36
2023-12-11T02:28:16.096Z,97970.30
2023-12-11T02:30:51.109Z,97958.05
2023-12-11T02:33:19.279Z,97954.71
2023-12-11T02:35:46.937Z,97948.70
2023-12-11T02:38:14.445Z,97934.98
2023-12-11T02:40:42.252Z,97925.00
2023-12-11T02:43:10.170Z,97921.97
2023-12-11T02:45:37.729Z,97918.67
2023-12-11T02:48:06.645Z,97916.98
2023-12-11T02:50:34.389Z,97915.45
2023-12-11T02:53:03.034Z,97909.38
2023-12-11T02:55:30.741Z,97899.69
2023-12-11T02:57:59.586Z,97903.09
2023-12-11T03:00:31.996Z,97913.77
2023-12-11T03:02:59.826Z,97917.35
2023-12-11T03:05:27.498Z,97919.92
2023-12-11T03:07:55.024Z,97918.52
2023-12-11T03:10:24.438Z,97925.77
2023-12-11T03:12:53.706Z,97925.17
2023-12-11T03:15:21.350Z,97923.73
2023-12-11T03:17:49.251Z,97926.00
2023-12-11T03:20:16.806Z,97918.70
2023-12-11T03:22:44.582Z,97928.40
2023-12-11T03:25:12.346Z,97928.61
2023-12-11T03:27:40.003Z,97927.88
2023-12-11T03:30:08.233Z,97926.55
2023-12-11T03:32:36.077Z,97925.95
2023-12-11T03:35:04.648Z,97926.52
2023-12-11T03:37:33.936Z,97924.60
2023-12-11T03:40:03.261Z,97925.15
2023-12-11T03:42:30.912Z,97925.77
2023-12-11T03:44:59.792Z,97929.77
2023-12-11T03:47:27.584Z,97943.69
2023-12-11T03:49:55.955Z,97948.10
2023-12-11T03:52:23.551Z,97949.65
2023-12-11T03:54:51.211Z,97947.88
2023-12-11T03:57:18.966Z,97944.33
2023-12-11T03:59:46.554Z,97939.98
2023-12-11T04:02:14.254Z,97927.40
2023-12-11T04:04:42.241Z,97927.86
2023-12-11T04:07:10.128Z,97929.64
2023-12-11T04:09:37.737Z,97939.55
2023-12-11T04:12:07.817Z,97950.58
2023-12-11T04:14:36.128Z,97954.45
2023-12-11T04:17:03.794Z,97948.97
2023-12-11T04:19:31.420Z,97952.36
2023-12-11T04:21:59.679Z,97954.20
2023-12-11T04:24:27.344Z,97964.34
2023-12-11T04:26:54.948Z,97960.20
2023-12-11T04:29:22.640Z,97969.04
2023-12-11T04:31:50.158Z,97969.30
2023-12-11T04:34:17.744Z,97974.64
2023-12-11T04:36:45.608Z,97975.57
2023-12-11T04:39:14.098Z,97971.58
2023-12-11T04:41:41.890Z,97965.45
2023-12-11T04:44:09.439Z,97965.95
2023-12-11T04:46:39.331Z,97963.84
2023-12-11T04:49:07.058Z,97962.46
2023-12-11T04:51:34.769Z,97951.87
2023-12-11T04:54:03.195Z,97949.15
2023-12-11T04:56:31.940Z,97948.20
2023-12-11T04:58:59.596Z,97942.69
2023-12-11T05:01:28.227Z,97940.89
2023-12-11T05:03:55.851Z,97940.92
2023-12-11T05:06:23.339Z,97939.96
2023-12-11T05:08:53.001Z,97936.67
2023-12-11T05:11:22.454Z,97933.17
2023-12-11T05:13:50.143Z,97931.48
2023-12-11T05:16:17.981Z,97934.85
2023-12-11T05:18:45.605Z,97938.92
2023-12-11T05:21:14.888Z,97953.23
2023-12-11T05:23:43.176Z,97955.11
2023-12-11T05:26:10.767Z,97939.83
2023-12-11T05:28:38.306Z,97939.63
2023-12-11T05:31:07.576Z,97939.88
2023-12-11T05:33:35.427Z,97934.89
2023-12-11T05:36:03.309Z,97932.95
2023-12-11T05:38:30.953Z,97941.19
2023-12-11T05:41:01.179Z,97937.00
2023-12-11T05:43:28.746Z,97937.35
2023-12-11T05:45:56.353Z,97934.90
2023-12-11T05:48:24.317Z,97937.48
2023-12-11T05:50:53.071Z,97938.08
2023-12-11T05:53:21.810Z,97935.28
2023-12-11T05:55:49.362Z,97928.33
2023-12-11T05:58:17.573Z,97935.02
2023-12-11T06:00:46.436Z,97931.22
2023-12-11T06:03:15.184Z,97926.14
2023-12-11T06:05:42.923Z,97929.52
2023-12-11T06:08:11.955Z,97923.83
2023-12-11T06:10:39.545Z,97927.55
2023-12-11T06:13:08.344Z,97924.85
2023-12-11T06:15:35.957Z,97922.11
2023-12-11T06:18:03.837Z,97926.83
2023-12-11T06:20:31.506Z,97928.98
2023-12-11T06:22:59.348Z,97933.77
2023-12-11T06:25:26.916Z,97933.35
2023-12-11T06:27:54.585Z,97926.47
2023-12-11T06:30:23.625Z,97926.64
2023-12-11T06:32:51.261Z,97921.91
2023-12-11T06:35:20.498Z,97921.11
2023-12-11T06:37:48.096Z,97916.94
2023-12-11T06:40:15.735Z,97907.53
2023-12-11T06:42:43.328Z,97902.40
2023-12-11T06:45:12.076Z,97904.31
2023-12-11T06:47:39.715Z,97909.71
2023-12-11T06:50:07.716Z,97912.64
2023-12-11T06:52:35.401Z,97921.17
2023-12-11T06:55:04.042Z,97928.79
2023-12-11T06:57:32.126Z,97932.61
2023-12-11T06:59:59.826Z,97936.21
2023-12-11T07:02:28.301Z,97938.31
2023-12-11T07:04:56.220Z,97939.62
2023-12-11T07:07:23.979Z,97937.75
2023-12-11T07:09:51.673Z,97938.61
2023-12-11T07:12:19.427Z,97933.36
2023-12-11T07:14:48.256Z,97935.36
2023-12-11T07:17:15.819Z,97935.82
2023-12-11T07:19:43.829Z,97928.73
2023-12-11T07:22:11.473Z,97920.41
2023-12-11T07:24:39.090Z,97916.07
2023-12-11T07:27:07.399Z,97917.03
2023-12-11T07:29:34.929Z,97913.88
2023-12-11T07:32:02.524Z,97915.16
2023-12-11T07:34:31.216Z,97916.54
2023-12-11T07:36:59.342Z,97916.73
2023-12-11T07:39:27.367Z,97909.16
2023-12-11T07:41:56.002Z,97915.35
2023-12-11T07:44:26.109Z,97922.69
2023-12-11T07:46:55.098Z,97912.31
2023-12-11T07:49:23.627Z,97926.92
2023-12-11T07:51:53.120Z,97927.89
2023-12-11T07:54:23.785Z,97927.21
2023-12-11T07:56:59.126Z,97928.24
2023-12-11T07:59:26.833Z,97925.88
2023-12-11T08:01:54.570Z,97917.07
2023-12-11T08:04:25.107Z,97914.43
2023-12-11T08:06:53.148Z,97918.92
2023-12-11T08:09:21.503Z,97922.77
2023-12-11T08:11:50.762Z,97914.48
2023-12-11T08:14:18.655Z,97905.02
2023-12-11T08:16:46.596Z,97889.90
2023-12-11T08:19:18.589Z,97887.38
2023-12-11T08:21:48.720Z,97890.96
2023-12-11T08:24:17.728Z,97886.66
2023-12-11T08:26:45.478Z,97878.29
2023-12-11T08:29:13.171Z,97872.20
2023-12-11T08:31:42.072Z,97863.95
2023-12-11T08:34:10.087Z,97859.19
2023-12-11T08:36:40.701Z,97858.45
2023-12-11T08:39:09.520Z,97860.14
2023-12-11T08:41:38.475Z,97856.69
2023-12-11T08:44:10.138Z,97850.85
2023-12-11T08:46:41.687Z,97844.02
2023-12-11T08:49:11.453Z,97840.25
2023-12-11T08:51:39.840Z,97837.55
2023-12-11T08:54:07.644Z,97829.46
2023-12-11T08:56:35.197Z,97828.30
2023-12-11T08:59:03.004Z,97818.10
2023-12-11T09:01:32.376Z,97804.81
2023-12-11T09:04:03.454Z,97794.62
2023-12-11T09:06:31.038Z,97788.69
2023-12-11T09:08:58.767Z,97780.34
2023-12-11T09:11:29.622Z,97767.48
2023-12-11T09:14:00.207Z,97759.14
2023-12-11T09:16:28.283Z,97756.42
2023-12-11T09:18:56.303Z,97758.14
2023-12-11T09:21:24.056Z,97764.42
2023-12-11T09:23:51.934Z,97768.39
2023-12-11T09:26:20.203Z,97770.77
2023-12-11T09:28:52.207Z,97771.89
2023-12-11T09:31:24.880Z,97773.34
2023-12-11T09:33:53.107Z,97772.02
2023-12-11T09:36:26.407Z,97760.38
2023-12-11T09:38:57.459Z,97752.84
2023-12-11T09:41:30.134Z,97749.79
2023-12-11T09:43:58.870Z,97752.59
2023-12-11T09:46:26.505Z,97755.27
2023-12-11T09:48:54.219Z,97745.41
2023-12-11T09:51:22.498Z,97733.73
2023-12-11T09:53:50.133Z,97728.34
2023-12-11T09:56:17.719Z,97724.56
2023-12-11T09:58:45.470Z,97725.48
2023-12-11T10:01:13.672Z,97735.58
2023-12-11T10:03:41.441Z,97728.44
2023-12-11T10:06:09.339Z,97721.23
2023-12-11T10:08:44.062Z,97716.12
2023-12-11T10:11:13.035Z,97710.31
2023-12-11T10:13:41.138Z,97710.63
2023-12-11T10:16:32.513Z,97714.23
2023-12-11T10:19:02.027Z,97717.70
2023-12-11T10:21:40.373Z,97719.92
2023-12-11T10:24:17.742Z,97729.42
2023-12-11T10:26:46.896Z,97731.46
2023-12-11T10:29:20.104Z,97729.81
2023-12-11T10:31:47.806Z,97720.81
2023-12-11T10:34:16.728Z,97720.10
2023-12-11T10:36:51.726Z,97725.58
2023-12-11T10:39:24.588Z,97733.16
2023-12-11T10:41:53.719Z,97730.04
2023-12-11T10:44:42.773Z,97732.58
2023-12-11T10:47:14.772Z,97744.35
2023-12-11T10:49:42.733Z,97730.29
2023-12-11T10:52:10.652Z,97732.74
2023-12-11T10:54:39.486Z,97732.09
2023-12-11T10:59:38.522Z,97730.73
2023-12-11T11:02:06.383Z,97733.90
2023-12-11T11:04:35.863Z,97728.45
2023-12-11T11:07:03.596Z,97725.98
2023-12-11T11:09:34.847Z,97722.23
2023-12-11T11:12:09.546Z,97723.45
2023-12-11T11:14:44.195Z,97722.15
2023-12-11T11:17:12.724Z,97722.98
2023-12-11T11:20:09.737Z,97713.38
2023-12-11T11:22:41.071Z,97707.70
2023-12-11T11:25:34.715Z,97702.33
2023-12-11T11:28:02.607Z,97700.58
2023-12-11T11:30:42.811Z,97686.95
2023-12-11T11:33:10.723Z,97685.83
2023-12-11T11:35:53.990Z,97676.16
2023-12-11T11:38:22.936Z,97670.15
2023-12-11T11:40:52.812Z,97668.89
2023-12-11T11:43:20.642Z,97678.35
2023-12-11T11:45:54.876Z,97680.30
2023-12-11T11:48:22.576Z,97679.81
2023-12-11T11:50:52.256Z,97674.27
2023-12-11T11:53:20.766Z,97678.27
2023-12-11T11:55:48.610Z,97669.42
2023-12-11T11:58:16.608Z,97664.00
2023-12-11T12:00:44.756Z,97659.27
2023-12-11T12:03:13.276Z,97662.28
2023-12-11T12:05:57.124Z,97661.51
2023-12-11T12:08:25.957Z,97659.49
2023-12-11T12:10:57.569Z,97654.54
2023-12-11T12:13:25.224Z,97646.75
2023-12-11T12:15:54.292Z,97642.20
2023-12-11T12:18:22.216Z,97642.45
2023-12-11T12:21:05.644Z,97637.45
2023-12-11T12:23:36.372Z,97632.84
2023-12-11T12:26:04.366Z,97631.64
2023-12-11T12:28:32.142Z,97629.17
2023-12-11T12:30:59.884Z,97628.65
2023-12-11T12:33:27.675Z,97626.13
2023-12-11T12:35:55.416Z,97620.00
2023-12-11T12:38:23.030Z,97614.70
2023-12-11T12:40:52.970Z,97610.73
2023-12-11T12:43:20.899Z,97607.82
2023-12-11T12:45:49.334Z,97606.13
2023-12-11T12:48:17.026Z,97609.22
2023-12-11T12:50:44.660Z,97611.11
2023-12-11T12:53:14.503Z,97605.41
2023-12-11T12:55:42.126Z,97602.52
2023-12-11T12:58:15.721Z,97603.39
2023-12-11T13:02:34.474Z,97602.10
2023-12-11T13:05:02.283Z,97599.65
2023-12-11T13:07:30.400Z,97606.19
2023-12-11T13:09:58.337Z,97606.14
2023-12-11T13:12:29.769Z,97604.70
2023-12-11T13:14:57.634Z,97605.40
2023-12-11T13:17:25.351Z,97600.98
2023-12-11T13:19:57.418Z,97601.75
2023-12-11T13:22:37.562Z,97604.25
2023-12-11T13:25:07.453Z,97602.27
2023-12-11T13:34:12.773Z,97600.05
2023-12-11T13:36:40.549Z,97604.43
2023-12-11T13:39:09.766Z,97612.66
2023-12-11T13:41:40.233Z,97614.56
2023-12-11T13:44:07.895Z,97620.41
2023-12-11T13:46:38.414Z,97619.21
2023-12-11T13:49:06.241Z,97614.65
2023-12-11T13:51:33.973Z,97609.06
2023-12-11T13:54:01.737Z,97605.63
2023-12-11T13:56:29.730Z,97606.02
2023-12-11T13:58:57.517Z,97601.34
2023-12-11T14:01:25.465Z,97603.65
2023-12-11T14:03:54.061Z,97601.54
2023-12-11T14:06:21.704Z,97607.15
2023-12-11T14:08:49.341Z,97602.01
2023-12-11T14:11:19.243Z,97601.55
2023-12-11T14:13:47.263Z,97598.73
2023-12-11T14:16:14.954Z,97602.61
2023-12-11T14:18:42.902Z,97599.20
2023-12-11T14:21:11.077Z,97597.55
2023-12-11T14:23:39.713Z,97594.27
2023-12-11T14:26:07.266Z,97595.06
2023-12-11T14:28:34.866Z,97590.71
2023-12-11T14:31:04.303Z,97593.11
2023-12-11T14:33:32.152Z,97592.55
2023-12-11T14:35:59.743Z,97592.05
2023-12-11T14:38:28.129Z,97594.70
2023-12-11T14:40:55.707Z,97595.63
2023-12-11T14:43:24.442Z,97597.90
2023-12-11T14:45:52.103Z,97596.21
2023-12-11T14:48:19.765Z,97599.10
2023-12-11T14:50:48.078Z,97591.77
2023-12-11T14:53:15.874Z,97589.66
2023-12-11T14:55:44.423Z,97587.79
2023-12-11T14:58:12.238Z,97592.30
2023-12-11T15:00:39.972Z,97600.45
2023-12-11T15:03:07.564Z,97600.94
2023-12-11T15:05:35.436Z,97594.48
2023-12-11T15:08:06.424Z,97588.70
2023-12-11T15:10:38.458Z,97587.52
2023-12-11T15:13:07.780Z,97591.05
2023-12-11T15:15:36.463Z,97587.91
2023-12-11T15:18:04.277Z,97588.89
2023-12-11T15:20:32.393Z,97591.20
2023-12-11T15:23:00.620Z,97589.06
2023-12-11T15:25:29.035Z,97586.33
2023-12-11T15:27:57.413Z,97583.02
2023-12-11T15:30:26.058Z,97590.07
2023-12-11T15:32:53.714Z,97587.60
2023-12-11T15:35:23.579Z,97583.27
2023-12-11T15:37:52.185Z,97577.76
2023-12-11T15:40:20.953Z,97571.52
2023-12-11T15:42:50.690Z,97571.02
2023-12-11T15:45:18.388Z,97569.23
2023-12-11T15:48:00.762Z,97573.91
2023-12-11T15:50:31.783Z,97574.77
2023-12-11T15:53:00.155Z,97573.30
2023-12-11T15:55:27.731Z,97573.00
2023-12-11T15:57:55.465Z,97572.65
2023-12-11T16:00:23.745Z,97568.55
2023-12-11T16:02:53.935Z,97570.02
2023-12-11T16:05:22.282Z,97576.86
2023-12-11T16:07:50.025Z,97573.45
2023-12-11T16:10:17.657Z,97574.23
2023-12-11T16:12:45.544Z,97571.32
2023-12-11T16:15:13.668Z,97570.16
2023-12-11T16:17:41.269Z,97574.62
2023-12-11T16:20:09.540Z,97574.98
2023-12-11T16:22:38.315Z,97562.86
2023-12-11T16:25:06.478Z,97556.07
2023-12-11T16:27:34.869Z,97554.27
2023-12-11T16:30:02.669Z,97557.96
2023-12-11T16:32:30.819Z,97555.55
2023-12-11T16:35:01.159Z,97554.25
2023-12-11T16:37:28.900Z,97554.81
2023-12-11T16:39:58.030Z,97562.45
2023-12-11T16:42:28.643Z,97564.52
2023-12-11T16:44:59.250Z,97561.46
2023-12-11T16:47:30.599Z,97557.80
2023-12-11T16:50:06.721Z,97553.94
2023-12-11T16:52:39.861Z,97547.17
2023-12-11T16:55:14.850Z,97547.58
2023-12-11T16:57:44.024Z,97554.33
2023-12-11T17:00:12.680Z,97548.59
2023-12-11T17:02:41.511Z,97541.86
2023-12-11T17:05:12.432Z,97546.44
2023-12-11T17:07:40.673Z,97542.34
2023-12-11T17:10:09.859Z,97544.84
2023-12-11T17:12:40.526Z,97533.27
2023-12-11T17:15:09.833Z,97535.23
2023-12-11T17:17:38.019Z,97533.69
2023-12-11T17:20:06.432Z,97530.23
2023-12-11T17:22:40.321Z,97537.70
2023-12-11T17:25:15.025Z,97540.95
2023-12-11T17:27:44.999Z,97535.21
2023-12-11T17:30:13.052Z,97526.39
2023-12-11T17:32:40.964Z,97521.99
2023-12-11T17:35:08.736Z,97529.11
2023-12-11T17:37:36.877Z,97533.52
2023-12-11T17:40:08.198Z,97525.84
2023-12-11T17:43:01.934Z,97524.18
2023-12-11T17:45:29.562Z,97529.80
2023-12-11T17:47:57.268Z,97526.23
2023-12-11T17:50:28.659Z,97526.15
2023-12-11T17:52:56.331Z,97536.41
2023-12-11T17:55:24.556Z,97540.77
2023-12-11T17:57:55.386Z,97543.52
2023-12-11T18:00:23.261Z,97533.35
2023-12-11T18:02:51.308Z,97523.61
2023-12-11T18:05:22.068Z,97521.38
2023-12-11T18:07:51.255Z,97515.91
2023-12-11T18:10:20.805Z,97514.54
2023-12-11T18:12:54.503Z,97511.97
2023-12-11T18:15:23.035Z,97513.02
2023-12-11T18:17:55.160Z,97516.04
2023-12-11T18:20:26.396Z,97521.69
2023-12-11T18:22:54.146Z,97530.08
2023-12-11T18:25:25.122Z,97525.11
2023-12-11T18:27:56.686Z,97516.30
2023-12-11T18:30:26.242Z,97519.04
2023-12-11T18:32:57.194Z,97517.42
2023-12-11T18:35:26.386Z,97509.38
2023-12-11T18:37:54.468Z,97504.48
2023-12-11T18:40:23.155Z,97506.62
2023-12-11T18:42:50.843Z,97504.41
2023-12-11T18:45:19.895Z,97500.90
2023-12-11T18:47:49.016Z,97493.88
2023-12-11T18:50:26.886Z,97489.80
2023-12-11T18:52:58.074Z,97488.69
2023-12-11T18:55:32.585Z,97489.20
2023-12-11T18:58:00.294Z,97496.77
2023-12-11T19:00:32.218Z,97490.11
2023-12-11T19:03:02.092Z,97488.23
2023-12-11T19:05:30.021Z,97483.04
2023-12-11T19:07:57.794Z,97484.23
2023-12-11T19:10:27.658Z,97477.37
2023-12-11T19:12:57.041Z,97474.57
2023-12-11T19:15:28.367Z,97467.49
2023-12-11T19:22:04.149Z,97479.67
2023-12-11T19:24:33.022Z,97483.58
2023-12-11T19:27:03.841Z,97488.15
2023-12-11T19:29:31.791Z,97501.44
2023-12-11T19:32:00.061Z,97491.33
2023-12-11T19:34:27.759Z,97489.38
2023-12-11T19:36:55.459Z,97491.84
2023-12-11T19:39:23.038Z,97486.02
2023-12-11T19:41:54.401Z,97489.33
2023-12-11T19:44:23.886Z,97483.89
2023-12-11T19:46:52.547Z,97468.83
2023-12-11T19:49:20.434Z,97473.47
2023-12-11T19:51:48.147Z,97486.06
2023-12-11T19:54:15.748Z,97494.55
2023-12-11T19:56:45.164Z,97496.34
2023-12-11T19:59:17.719Z,97492.06
2023-12-11T20:01:45.418Z,97497.61
2023-12-11T20:04:13.193Z,97491.61
2023-12-11T20:06:42.487Z,97502.66
2023-12-11T20:09:10.096Z,97497.46
2023-12-11T20:11:37.830Z,97498.29
2023-12-11T20:14:05.450Z,97500.02
2023-12-11T20:16:33.308Z,97492.28
2023-12-11T20:19:01.399Z,97494.81
2023-12-11T20:21:29.432Z,97495.34
2023-12-11T20:23:57.074Z,97488.44
2023-12-11T20:26:26.578Z,97489.67
2023-12-11T20:28:54.133Z,97492.52
2023-12-11T20:31:21.744Z,97494.73
2023-12-11T20:33:52.091Z,97493.14
2023-12-11T20:36:20.285Z,97483.96
2023-12-11T20:38:50.613Z,97479.97
2023-12-11T20:41:22.185Z,97476.33
2023-12-11T20:43:52.979Z,97471.11
2023-12-11T20:46:25.320Z,97468.97
2023-12-11T20:48:56.045Z,97458.43
2023-12-11T20:51:26.013Z,97459.14
2023-12-11T20:53:54.099Z,97470.34
2023-12-11T20:56:30.853Z,97468.54
2023-12-11T20:59:01.973Z,97466.97
2023-12-11T21:01:34.659Z,97464.05
2023-12-11T21:04:05.919Z,97466.70
2023-12-11T21:06:36.789Z,97470.89
2023-12-11T21:09:11.996Z,97466.30
2023-12-11T21:11:39.721Z,97457.73
2023-12-11T21:14:07.393Z,97456.16
2023-12-11T21:16:37.782Z,97453.19
2023-12-11T21:19:06.541Z,97459.74
2023-12-11T21:21:40.331Z,97462.04
2023-12-11T21:24:10.123Z,97465.84
2023-12-11T21:26:37.993Z,97467.17
2023-12-11T21:29:05.821Z,97467.84
2023-12-11T21:31:36.671Z,97463.10
2023-12-11T21:34:06.779Z,97462.08
2023-12-11T21:36:34.771Z,97459.96
2023-12-11T21:39:06.673Z,97465.06
2023-12-11T21:41:34.890Z,97459.06
2023-12-11T21:44:02.713Z,97451.46
2023-12-11T21:46:33.466Z,97462.36
2023-12-11T21:49:02.753Z,97451.53
2023-12-11T21:51:31.091Z,97451.06
2023-12-11T21:53:58.900Z,97451.48
2023-12-11T21:56:27.128Z,97453.53
2023-12-11T21:58:54.903Z,97460.58
2023-12-11T22:01:22.532Z,97462.99
2023-12-11T22:03:50.321Z,97462.42
2023-12-11T22:06:19.268Z,97458.73
2023-12-11T22:08:47.144Z,97464.09
2023-12-11T22:11:15.401Z,97455.89
2023-12-11T22:13:43.253Z,97454.61
2023-12-11T22:16:10.819Z,97449.35
2023-12-11T22:18:38.831Z,97447.52
2023-12-11T22:21:06.678Z,97453.41
2023-12-11T22:23:34.906Z,97448.70
2023-12-11T22:26:02.533Z,97445.95
2023-12-11T22:28:30.168Z,97450.23
2023-12-11T22:30:57.751Z,97446.48
2023-12-11T22:33:25.269Z,97440.74
2023-12-11T22:35:52.999Z,97428.67
2023-12-11T22:38:20.890Z,97425.20
2023-12-11T22:40:49.123Z,97411.54
2023-12-11T22:43:16.932Z,97412.42
2023-12-11T22:45:44.531Z,97410.71
2023-12-11T22:48:15.000Z,97407.36
2023-12-11T22:50:43.118Z,97406.64
2023-12-11T22:53:11.053Z,97411.60
2023-12-11T22:55:38.669Z,97409.73
2023-12-11T22:58:14.033Z,97413.23
2023-12-11T23:00:44.483Z,97410.14
2023-12-11T23:03:12.319Z,97407.84
2023-12-11T23:05:40.808Z,97398.92
2023-12-11T23:08:08.337Z,97392.73
2023-12-11T23:10:36.012Z,97390.19
2023-12-11T23:13:03.680Z,97387.88
2023-12-11T23:15:32.992Z,97403.33
2023-12-11T23:18:04.885Z,97418.17
2023-12-11T23:20:32.644Z,97412.52
2023-12-11T23:23:02.346Z,97409.45
2023-12-11T23:25:29.900Z,97409.52
2023-12-11T23:27:57.555Z,97421.05
2023-12-11T23:30:25.108Z,97413.98
2023-12-11T23:32:52.978Z,97406.23
2023-12-11T23:35:20.749Z,97389.27
2023-12-11T23:37:49.527Z,97373.65
2023-12-11T23:40:17.221Z,97379.24
2023-12-11T23:42:45.938Z,97380.27
2023-12-11T23:45:13.489Z,97376.55
2023-12-11T23:47:41.096Z,97377.42
2023-12-11T23:50:09.670Z,97380.42
2023-12-11T23:52:37.783Z,97375.29
2023-12-11T23:55:05.811Z,97372.20
2023-12-11T23:57:34.470Z,97377.70
